Terminal Aerodrome Forecast
Issued by NWS Sterling, VA

Home | Current Version | Previous Version | Text Only | Print | Product List | Glossary On
Versions: 1 2 3 4 5 6 7 8 9 10 11 12 13 14
057
FTUS41 KLWX 230533
TAFCHO
TAF
KCHO 230533Z 2306/2406 19007KT P6SM OVC050
     FM231100 VRB03KT 3SM BR OVC050
     FM231400 20005KT P6SM SCT070=

USA.gov is the U.S. government's official web portal to all federal, state and local government web resources and services.